Ackerly, Texas
Current Conditions -  °F | °C
As of 7:15 AM on Thursday 30 Oct 2014 (Local Time) from KBPG Reporting Station
Clear Clear  
Wind Chill: 15°   Ceiling: Unl
Heat Index: 15°   Visibility: 5mi
Dew Point: 13°   Wind: 6mph
Humidity: 91%   Direction: 150°SSE
Pressure: 30.13"   Gusts: NA
Location:  32.53°N, 101.72°W
Report Text: KBPG 301215Z AUTO 15005KT 5SM CLR 15/13 A3013 RMK AO2 T01480133
Loading
Personal Weather Stations






























Interactive Weather Map
Tropical Storm Tracking
New forecast layout! Learn more

10-Day Weather Forecast

Advertisements
Track Severe Weather on mobile